sensor_id;sensor_type;location;lat;lon;timestamp;P1;durP1;ratioP1;P2;durP2;ratioP2
20629;SDS011;17386;43.846;25.950;2023-04-15T00:02:17;5.88;;;1.30;;
20629;SDS011;17386;43.846;25.950;2023-04-15T00:04:46;2.13;;;1.10;;
20629;SDS011;17386;43.846;25.950;2023-04-15T00:07:12;2.40;;;1.17;;
20629;SDS011;17386;43.846;25.950;2023-04-15T00:09:39;4.07;;;1.30;;
20629;SDS011;17386;43.846;25.950;2023-04-15T00:12:05;3.40;;;1.10;;
20629;SDS011;17386;43.846;25.950;2023-04-15T00:14:32;5.05;;;1.10;;
20629;SDS011;17386;43.846;25.950;2023-04-15T00:19:24;2.83;;;1.10;;
20629;SDS011;17386;43.846;25.950;2023-04-15T00:21:50;2.72;;;1.27;;
20629;SDS011;17386;43.846;25.950;2023-04-15T00:24:15;1.65;;;0.85;;
20629;SDS011;17386;43.846;25.950;2023-04-15T00:26:41;2.70;;;1.23;;
20629;SDS011;17386;43.846;25.950;2023-04-15T00:29:06;2.47;;;1.40;;
20629;SDS011;17386;43.846;25.950;2023-04-15T00:31:32;3.42;;;1.10;;
20629;SDS011;17386;43.846;25.950;2023-04-15T00:33:57;11.65;;;1.90;;
20629;SDS011;17386;43.846;25.950;2023-04-15T00:36:23;6.90;;;1.83;;
20629;SDS011;17386;43.846;25.950;2023-04-15T00:38:50;3.70;;;1.40;;
20629;SDS011;17386;43.846;25.950;2023-04-15T00:41:15;2.72;;;1.40;;
20629;SDS011;17386;43.846;25.950;2023-04-15T00:43:43;5.55;;;1.63;;
20629;SDS011;17386;43.846;25.950;2023-04-15T00:46:08;3.05;;;1.50;;
20629;SDS011;17386;43.846;25.950;2023-04-15T00:48:36;2.83;;;1.60;;
20629;SDS011;17386;43.846;25.950;2023-04-15T00:51:03;5.88;;;1.60;;
20629;SDS011;17386;43.846;25.950;2023-04-15T00:53:28;8.18;;;1.58;;
20629;SDS011;17386;43.846;25.950;2023-04-15T00:55:54;3.10;;;1.25;;
20629;SDS011;17386;43.846;25.950;2023-04-15T00:58:20;3.38;;;1.50;;
20629;SDS011;17386;43.846;25.950;2023-04-15T01:00:45;5.22;;;1.80;;
20629;SDS011;17386;43.846;25.950;2023-04-15T01:03:11;4.80;;;2.15;;
20629;SDS011;17386;43.846;25.950;2023-04-15T01:05:38;5.47;;;2.05;;
20629;SDS011;17386;43.846;25.950;2023-04-15T01:08:04;5.35;;;2.30;;
20629;SDS011;17386;43.846;25.950;2023-04-15T01:10:30;5.40;;;2.10;;
20629;SDS011;17386;43.846;25.950;2023-04-15T01:12:56;4.45;;;1.92;;
20629;SDS011;17386;43.846;25.950;2023-04-15T01:15:22;6.15;;;2.28;;
20629;SDS011;17386;43.846;25.950;2023-04-15T01:17:48;4.85;;;2.40;;
20629;SDS011;17386;43.846;25.950;2023-04-15T01:20:14;5.60;;;2.35;;
20629;SDS011;17386;43.846;25.950;2023-04-15T01:22:40;5.38;;;2.58;;
20629;SDS011;17386;43.846;25.950;2023-04-15T01:25:09;7.55;;;2.70;;
20629;SDS011;17386;43.846;25.950;2023-04-15T01:27:39;5.40;;;2.60;;
20629;SDS011;17386;43.846;25.950;2023-04-15T01:30:06;3.70;;;2.58;;
20629;SDS011;17386;43.846;25.950;2023-04-15T01:32:33;5.47;;;2.80;;
20629;SDS011;17386;43.846;25.950;2023-04-15T01:34:58;10.18;;;3.20;;
20629;SDS011;17386;43.846;25.950;2023-04-15T01:37:24;5.93;;;3.00;;
20629;SDS011;17386;43.846;25.950;2023-04-15T01:39:50;8.68;;;2.97;;
20629;SDS011;17386;43.846;25.950;2023-04-15T01:42:16;7.55;;;3.70;;
20629;SDS011;17386;43.846;25.950;2023-04-15T01:44:41;6.45;;;3.33;;
20629;SDS011;17386;43.846;25.950;2023-04-15T01:47:07;5.30;;;3.00;;
20629;SDS011;17386;43.846;25.950;2023-04-15T01:49:32;6.40;;;3.58;;
20629;SDS011;17386;43.846;25.950;2023-04-15T01:51:58;7.78;;;3.17;;
20629;SDS011;17386;43.846;25.950;2023-04-15T01:54:23;10.75;;;3.50;;
20629;SDS011;17386;43.846;25.950;2023-04-15T01:56:48;6.18;;;3.35;;
20629;SDS011;17386;43.846;25.950;2023-04-15T01:59:14;8.27;;;3.13;;
20629;SDS011;17386;43.846;25.950;2023-04-15T02:01:40;6.35;;;3.30;;
20629;SDS011;17386;43.846;25.950;2023-04-15T02:04:06;8.23;;;3.80;;
20629;SDS011;17386;43.846;25.950;2023-04-15T02:06:32;5.07;;;2.97;;
20629;SDS011;17386;43.846;25.950;2023-04-15T02:08:57;9.98;;;3.38;;
20629;SDS011;17386;43.846;25.950;2023-04-15T02:11:23;6.68;;;2.72;;
20629;SDS011;17386;43.846;25.950;2023-04-15T02:13:48;4.85;;;2.35;;
20629;SDS011;17386;43.846;25.950;2023-04-15T02:16:15;7.07;;;2.70;;
20629;SDS011;17386;43.846;25.950;2023-04-15T02:18:42;5.93;;;2.33;;
20629;SDS011;17386;43.846;25.950;2023-04-15T02:21:08;7.78;;;2.92;;
20629;SDS011;17386;43.846;25.950;2023-04-15T02:23:34;5.13;;;2.42;;
20629;SDS011;17386;43.846;25.950;2023-04-15T02:25:59;9.15;;;2.95;;
20629;SDS011;17386;43.846;25.950;2023-04-15T02:28:25;7.85;;;2.75;;
20629;SDS011;17386;43.846;25.950;2023-04-15T02:30:51;4.53;;;2.13;;
20629;SDS011;17386;43.846;25.950;2023-04-15T02:33:18;5.78;;;2.45;;
20629;SDS011;17386;43.846;25.950;2023-04-15T02:35:44;6.22;;;2.72;;
20629;SDS011;17386;43.846;25.950;2023-04-15T02:38:10;5.13;;;2.45;;
20629;SDS011;17386;43.846;25.950;2023-04-15T02:40:35;7.22;;;2.60;;
20629;SDS011;17386;43.846;25.950;2023-04-15T02:43:04;5.43;;;2.40;;
20629;SDS011;17386;43.846;25.950;2023-04-15T02:45:31;4.63;;;2.45;;
20629;SDS011;17386;43.846;25.950;2023-04-15T02:47:57;7.57;;;2.90;;
20629;SDS011;17386;43.846;25.950;2023-04-15T02:50:22;5.75;;;2.83;;
20629;SDS011;17386;43.846;25.950;2023-04-15T02:52:49;9.30;;;3.47;;
20629;SDS011;17386;43.846;25.950;2023-04-15T02:55:16;7.13;;;3.05;;
20629;SDS011;17386;43.846;25.950;2023-04-15T02:57:42;10.93;;;3.05;;
20629;SDS011;17386;43.846;25.950;2023-04-15T03:00:08;6.88;;;3.00;;
20629;SDS011;17386;43.846;25.950;2023-04-15T03:02:35;9.80;;;2.92;;
20629;SDS011;17386;43.846;25.950;2023-04-15T03:05:02;8.02;;;3.72;;
20629;SDS011;17386;43.846;25.950;2023-04-15T03:07:28;7.18;;;3.60;;
20629;SDS011;17386;43.846;25.950;2023-04-15T03:09:54;11.25;;;4.25;;
20629;SDS011;17386;43.846;25.950;2023-04-15T03:12:20;9.95;;;3.60;;
20629;SDS011;17386;43.846;25.950;2023-04-15T03:14:45;9.20;;;3.97;;
20629;SDS011;17386;43.846;25.950;2023-04-15T03:17:10;9.55;;;4.57;;
20629;SDS011;17386;43.846;25.950;2023-04-15T03:19:36;9.25;;;4.15;;
20629;SDS011;17386;43.846;25.950;2023-04-15T03:22:01;8.50;;;3.80;;
20629;SDS011;17386;43.846;25.950;2023-04-15T03:24:27;9.25;;;4.07;;
20629;SDS011;17386;43.846;25.950;2023-04-15T03:26:54;13.52;;;4.18;;
20629;SDS011;17386;43.846;25.950;2023-04-15T03:29:20;12.38;;;4.18;;
20629;SDS011;17386;43.846;25.950;2023-04-15T03:31:45;9.90;;;4.43;;
20629;SDS011;17386;43.846;25.950;2023-04-15T03:34:11;10.82;;;4.00;;
20629;SDS011;17386;43.846;25.950;2023-04-15T03:36:36;9.88;;;4.57;;
20629;SDS011;17386;43.846;25.950;2023-04-15T03:39:02;11.52;;;5.25;;
20629;SDS011;17386;43.846;25.950;2023-04-15T03:41:28;11.90;;;4.13;;
20629;SDS011;17386;43.846;25.950;2023-04-15T03:43:53;10.93;;;3.88;;
20629;SDS011;17386;43.846;25.950;2023-04-15T03:46:19;9.63;;;3.90;;
20629;SDS011;17386;43.846;25.950;2023-04-15T03:48:45;9.52;;;3.72;;
20629;SDS011;17386;43.846;25.950;2023-04-15T03:51:11;9.13;;;3.83;;
20629;SDS011;17386;43.846;25.950;2023-04-15T03:53:36;10.18;;;4.10;;
20629;SDS011;17386;43.846;25.950;2023-04-15T03:56:02;9.85;;;3.78;;
20629;SDS011;17386;43.846;25.950;2023-04-15T03:58:27;10.07;;;3.80;;
20629;SDS011;17386;43.846;25.950;2023-04-15T04:00:52;10.70;;;4.20;;
20629;SDS011;17386;43.846;25.950;2023-04-15T04:03:18;9.95;;;4.00;;
20629;SDS011;17386;43.846;25.950;2023-04-15T04:05:44;11.40;;;3.70;;
20629;SDS011;17386;43.846;25.950;2023-04-15T04:08:10;9.25;;;4.53;;
20629;SDS011;17386;43.846;25.950;2023-04-15T04:10:37;9.52;;;3.75;;
20629;SDS011;17386;43.846;25.950;2023-04-15T04:13:03;11.27;;;4.43;;
20629;SDS011;17386;43.846;25.950;2023-04-15T04:15:29;15.82;;;3.97;;
20629;SDS011;17386;43.846;25.950;2023-04-15T04:17:55;15.00;;;5.07;;
20629;SDS011;17386;43.846;25.950;2023-04-15T04:20:20;13.05;;;5.65;;
20629;SDS011;17386;43.846;25.950;2023-04-15T04:22:45;15.52;;;5.10;;
20629;SDS011;17386;43.846;25.950;2023-04-15T04:25:11;12.27;;;4.80;;
20629;SDS011;17386;43.846;25.950;2023-04-15T04:27:36;10.07;;;5.05;;
20629;SDS011;17386;43.846;25.950;2023-04-15T04:30:02;10.82;;;4.60;;
20629;SDS011;17386;43.846;25.950;2023-04-15T04:32:28;10.55;;;4.50;;
20629;SDS011;17386;43.846;25.950;2023-04-15T04:34:54;10.50;;;4.63;;
20629;SDS011;17386;43.846;25.950;2023-04-15T04:37:19;9.80;;;4.50;;
20629;SDS011;17386;43.846;25.950;2023-04-15T04:39:45;11.80;;;4.00;;
20629;SDS011;17386;43.846;25.950;2023-04-15T04:42:10;12.15;;;3.85;;
20629;SDS011;17386;43.846;25.950;2023-04-15T04:44:36;7.90;;;3.80;;
20629;SDS011;17386;43.846;25.950;2023-04-15T04:47:02;8.45;;;4.13;;
20629;SDS011;17386;43.846;25.950;2023-04-15T04:49:27;8.63;;;3.90;;
20629;SDS011;17386;43.846;25.950;2023-04-15T04:51:52;9.38;;;3.97;;
20629;SDS011;17386;43.846;25.950;2023-04-15T04:54:18;8.25;;;4.22;;
20629;SDS011;17386;43.846;25.950;2023-04-15T04:56:43;10.60;;;5.50;;
20629;SDS011;17386;43.846;25.950;2023-04-15T04:59:09;10.43;;;5.15;;
20629;SDS011;17386;43.846;25.950;2023-04-15T05:01:34;9.18;;;4.07;;
20629;SDS011;17386;43.846;25.950;2023-04-15T05:04:00;8.70;;;4.07;;
20629;SDS011;17386;43.846;25.950;2023-04-15T05:06:25;10.50;;;4.20;;
20629;SDS011;17386;43.846;25.950;2023-04-15T05:08:51;7.55;;;4.47;;
20629;SDS011;17386;43.846;25.950;2023-04-15T05:11:17;6.97;;;4.10;;
20629;SDS011;17386;43.846;25.950;2023-04-15T05:13:42;8.98;;;3.70;;
20629;SDS011;17386;43.846;25.950;2023-04-15T05:16:07;7.00;;;3.40;;
20629;SDS011;17386;43.846;25.950;2023-04-15T05:18:33;10.80;;;3.72;;
20629;SDS011;17386;43.846;25.950;2023-04-15T05:20:58;6.13;;;3.28;;
20629;SDS011;17386;43.846;25.950;2023-04-15T05:23:24;6.25;;;3.30;;
20629;SDS011;17386;43.846;25.950;2023-04-15T05:25:50;6.53;;;3.38;;
20629;SDS011;17386;43.846;25.950;2023-04-15T05:28:15;7.40;;;3.00;;
20629;SDS011;17386;43.846;25.950;2023-04-15T05:30:41;5.85;;;2.95;;
20629;SDS011;17386;43.846;25.950;2023-04-15T05:33:06;7.25;;;3.30;;
20629;SDS011;17386;43.846;25.950;2023-04-15T05:35:32;6.22;;;2.83;;
20629;SDS011;17386;43.846;25.950;2023-04-15T05:37:57;8.27;;;3.42;;
20629;SDS011;17386;43.846;25.950;2023-04-15T05:40:23;7.72;;;3.13;;
20629;SDS011;17386;43.846;25.950;2023-04-15T05:42:48;7.50;;;3.13;;
20629;SDS011;17386;43.846;25.950;2023-04-15T05:45:14;7.15;;;3.38;;
20629;SDS011;17386;43.846;25.950;2023-04-15T05:47:39;21.02;;;18.77;;
20629;SDS011;17386;43.846;25.950;2023-04-15T05:50:05;9.75;;;5.38;;
20629;SDS011;17386;43.846;25.950;2023-04-15T05:52:31;14.32;;;5.63;;
20629;SDS011;17386;43.846;25.950;2023-04-15T05:54:56;13.25;;;5.65;;
20629;SDS011;17386;43.846;25.950;2023-04-15T05:57:22;14.80;;;6.25;;
20629;SDS011;17386;43.846;25.950;2023-04-15T05:59:47;10.65;;;4.80;;
20629;SDS011;17386;43.846;25.950;2023-04-15T06:02:13;10.18;;;3.95;;
20629;SDS011;17386;43.846;25.950;2023-04-15T06:04:39;13.27;;;4.43;;
20629;SDS011;17386;43.846;25.950;2023-04-15T06:07:04;9.02;;;3.83;;
20629;SDS011;17386;43.846;25.950;2023-04-15T06:09:30;11.27;;;3.90;;
20629;SDS011;17386;43.846;25.950;2023-04-15T06:11:58;12.32;;;4.30;;
20629;SDS011;17386;43.846;25.950;2023-04-15T06:14:24;6.82;;;3.20;;
20629;SDS011;17386;43.846;25.950;2023-04-15T06:16:49;5.32;;;3.08;;
20629;SDS011;17386;43.846;25.950;2023-04-15T06:19:15;7.38;;;3.35;;
20629;SDS011;17386;43.846;25.950;2023-04-15T06:21:40;7.13;;;3.33;;
20629;SDS011;17386;43.846;25.950;2023-04-15T06:24:06;8.07;;;3.03;;
20629;SDS011;17386;43.846;25.950;2023-04-15T06:26:31;5.30;;;2.60;;
20629;SDS011;17386;43.846;25.950;2023-04-15T06:28:57;4.45;;;2.28;;
20629;SDS011;17386;43.846;25.950;2023-04-15T06:31:22;4.93;;;2.22;;
20629;SDS011;17386;43.846;25.950;2023-04-15T06:33:47;6.15;;;2.78;;
20629;SDS011;17386;43.846;25.950;2023-04-15T06:36:13;5.30;;;2.40;;
20629;SDS011;17386;43.846;25.950;2023-04-15T06:38:39;6.38;;;2.30;;
20629;SDS011;17386;43.846;25.950;2023-04-15T06:41:04;6.57;;;2.10;;
20629;SDS011;17386;43.846;25.950;2023-04-15T06:43:30;6.25;;;2.40;;
20629;SDS011;17386;43.846;25.950;2023-04-15T06:45:56;4.18;;;2.40;;
20629;SDS011;17386;43.846;25.950;2023-04-15T06:48:21;4.40;;;2.45;;
20629;SDS011;17386;43.846;25.950;2023-04-15T06:50:47;5.82;;;2.40;;
20629;SDS011;17386;43.846;25.950;2023-04-15T06:53:13;5.15;;;2.25;;
20629;SDS011;17386;43.846;25.950;2023-04-15T06:55:38;4.95;;;2.38;;
20629;SDS011;17386;43.846;25.950;2023-04-15T06:58:05;7.47;;;2.47;;
20629;SDS011;17386;43.846;25.950;2023-04-15T07:00:31;5.45;;;2.42;;
20629;SDS011;17386;43.846;25.950;2023-04-15T07:02:57;5.35;;;2.40;;
20629;SDS011;17386;43.846;25.950;2023-04-15T07:05:24;6.28;;;2.60;;
20629;SDS011;17386;43.846;25.950;2023-04-15T07:07:50;4.80;;;2.40;;
20629;SDS011;17386;43.846;25.950;2023-04-15T07:10:16;6.32;;;2.50;;
20629;SDS011;17386;43.846;25.950;2023-04-15T07:12:42;8.68;;;2.15;;
20629;SDS011;17386;43.846;25.950;2023-04-15T07:15:07;4.43;;;2.33;;
20629;SDS011;17386;43.846;25.950;2023-04-15T07:17:33;3.97;;;1.90;;
20629;SDS011;17386;43.846;25.950;2023-04-15T07:19:58;5.55;;;1.80;;
20629;SDS011;17386;43.846;25.950;2023-04-15T07:22:24;6.22;;;1.77;;
20629;SDS011;17386;43.846;25.950;2023-04-15T07:24:50;5.10;;;1.65;;
20629;SDS011;17386;43.846;25.950;2023-04-15T07:27:15;4.32;;;1.65;;
20629;SDS011;17386;43.846;25.950;2023-04-15T07:29:41;6.78;;;1.90;;
20629;SDS011;17386;43.846;25.950;2023-04-15T07:32:07;4.20;;;2.03;;
20629;SDS011;17386;43.846;25.950;2023-04-15T07:34:34;6.10;;;2.10;;
20629;SDS011;17386;43.846;25.950;2023-04-15T07:36:59;6.72;;;2.00;;
20629;SDS011;17386;43.846;25.950;2023-04-15T07:39:25;5.30;;;2.08;;
20629;SDS011;17386;43.846;25.950;2023-04-15T07:41:51;4.97;;;2.35;;
20629;SDS011;17386;43.846;25.950;2023-04-15T07:44:16;5.50;;;2.10;;
20629;SDS011;17386;43.846;25.950;2023-04-15T07:46:42;4.68;;;2.00;;
20629;SDS011;17386;43.846;25.950;2023-04-15T07:49:07;4.28;;;2.10;;
20629;SDS011;17386;43.846;25.950;2023-04-15T07:51:33;6.15;;;2.30;;
20629;SDS011;17386;43.846;25.950;2023-04-15T07:53:58;4.88;;;2.30;;
20629;SDS011;17386;43.846;25.950;2023-04-15T07:56:24;5.75;;;2.28;;
20629;SDS011;17386;43.846;25.950;2023-04-15T07:58:50;6.72;;;2.40;;
20629;SDS011;17386;43.846;25.950;2023-04-15T08:01:15;6.40;;;2.50;;
20629;SDS011;17386;43.846;25.950;2023-04-15T08:03:41;4.45;;;2.40;;
20629;SDS011;17386;43.846;25.950;2023-04-15T08:06:07;7.93;;;3.17;;
20629;SDS011;17386;43.846;25.950;2023-04-15T08:08:32;5.50;;;3.10;;
20629;SDS011;17386;43.846;25.950;2023-04-15T08:10:57;5.65;;;2.60;;
20629;SDS011;17386;43.846;25.950;2023-04-15T08:13:23;7.70;;;2.95;;
20629;SDS011;17386;43.846;25.950;2023-04-15T08:15:52;6.07;;;2.83;;
20629;SDS011;17386;43.846;25.950;2023-04-15T08:18:38;4.72;;;2.58;;
20629;SDS011;17386;43.846;25.950;2023-04-15T08:21:03;5.78;;;2.90;;
20629;SDS011;17386;43.846;25.950;2023-04-15T08:23:29;5.45;;;3.25;;
20629;SDS011;17386;43.846;25.950;2023-04-15T08:25:55;6.70;;;3.20;;
20629;SDS011;17386;43.846;25.950;2023-04-15T08:28:21;4.80;;;2.60;;
20629;SDS011;17386;43.846;25.950;2023-04-15T08:30:46;5.93;;;2.92;;
20629;SDS011;17386;43.846;25.950;2023-04-15T08:33:12;7.55;;;3.58;;
20629;SDS011;17386;43.846;25.950;2023-04-15T08:35:37;5.93;;;2.60;;
20629;SDS011;17386;43.846;25.950;2023-04-15T08:38:03;5.68;;;2.53;;
20629;SDS011;17386;43.846;25.950;2023-04-15T08:40:31;10.93;;;3.72;;
20629;SDS011;17386;43.846;25.950;2023-04-15T08:43:04;4.85;;;2.85;;
20629;SDS011;17386;43.846;25.950;2023-04-15T08:45:33;5.30;;;2.90;;
20629;SDS011;17386;43.846;25.950;2023-04-15T08:48:00;5.93;;;2.95;;
20629;SDS011;17386;43.846;25.950;2023-04-15T08:50:29;4.82;;;2.40;;
20629;SDS011;17386;43.846;25.950;2023-04-15T08:52:57;6.55;;;2.80;;
20629;SDS011;17386;43.846;25.950;2023-04-15T08:55:24;6.38;;;2.65;;
20629;SDS011;17386;43.846;25.950;2023-04-15T08:57:54;5.18;;;2.50;;
20629;SDS011;17386;43.846;25.950;2023-04-15T09:00:20;7.43;;;2.70;;
20629;SDS011;17386;43.846;25.950;2023-04-15T09:02:47;5.03;;;2.17;;
20629;SDS011;17386;43.846;25.950;2023-04-15T09:05:12;5.80;;;2.47;;
20629;SDS011;17386;43.846;25.950;2023-04-15T09:07:38;5.35;;;2.35;;
20629;SDS011;17386;43.846;25.950;2023-04-15T09:10:03;5.50;;;2.00;;
20629;SDS011;17386;43.846;25.950;2023-04-15T09:12:29;4.25;;;2.00;;
20629;SDS011;17386;43.846;25.950;2023-04-15T09:14:56;4.47;;;1.80;;
20629;SDS011;17386;43.846;25.950;2023-04-15T09:17:21;5.57;;;2.42;;
20629;SDS011;17386;43.846;25.950;2023-04-15T09:19:48;7.63;;;2.35;;
20629;SDS011;17386;43.846;25.950;2023-04-15T09:22:31;6.57;;;2.50;;
20629;SDS011;17386;43.846;25.950;2023-04-15T09:24:57;6.35;;;2.90;;
20629;SDS011;17386;43.846;25.950;2023-04-15T09:27:22;5.85;;;2.72;;
20629;SDS011;17386;43.846;25.950;2023-04-15T09:29:48;6.10;;;2.38;;
20629;SDS011;17386;43.846;25.950;2023-04-15T09:32:15;4.10;;;1.88;;
20629;SDS011;17386;43.846;25.950;2023-04-15T09:34:41;4.47;;;2.03;;
20629;SDS011;17386;43.846;25.950;2023-04-15T09:37:06;4.63;;;2.17;;
20629;SDS011;17386;43.846;25.950;2023-04-15T09:39:47;5.68;;;1.65;;
20629;SDS011;17386;43.846;25.950;2023-04-15T09:42:14;3.58;;;2.00;;
20629;SDS011;17386;43.846;25.950;2023-04-15T09:44:41;4.30;;;2.03;;
20629;SDS011;17386;43.846;25.950;2023-04-15T09:47:07;5.47;;;2.70;;
20629;SDS011;17386;43.846;25.950;2023-04-15T09:49:32;3.78;;;1.88;;
20629;SDS011;17386;43.846;25.950;2023-04-15T09:51:59;4.68;;;1.73;;
20629;SDS011;17386;43.846;25.950;2023-04-15T09:54:35;7.43;;;2.30;;
20629;SDS011;17386;43.846;25.950;2023-04-15T09:57:08;8.48;;;2.38;;
20629;SDS011;17386;43.846;25.950;2023-04-15T09:59:37;4.10;;;1.60;;
20629;SDS011;17386;43.846;25.950;2023-04-15T10:02:05;3.47;;;1.83;;
20629;SDS011;17386;43.846;25.950;2023-04-15T10:04:37;4.30;;;1.55;;
20629;SDS011;17386;43.846;25.950;2023-04-15T10:07:04;4.35;;;1.95;;
20629;SDS011;17386;43.846;25.950;2023-04-15T10:09:30;3.85;;;1.67;;
20629;SDS011;17386;43.846;25.950;2023-04-15T10:11:57;5.43;;;2.35;;
20629;SDS011;17386;43.846;25.950;2023-04-15T10:14:23;4.70;;;2.33;;
20629;SDS011;17386;43.846;25.950;2023-04-15T10:16:51;5.80;;;1.73;;
20629;SDS011;17386;43.846;25.950;2023-04-15T10:19:20;3.70;;;1.60;;
20629;SDS011;17386;43.846;25.950;2023-04-15T10:21:51;5.55;;;1.60;;
20629;SDS011;17386;43.846;25.950;2023-04-15T10:24:18;5.28;;;2.30;;
20629;SDS011;17386;43.846;25.950;2023-04-15T10:26:45;4.63;;;2.13;;
20629;SDS011;17386;43.846;25.950;2023-04-15T10:29:10;3.35;;;1.50;;
20629;SDS011;17386;43.846;25.950;2023-04-15T10:31:36;4.10;;;1.25;;
20629;SDS011;17386;43.846;25.950;2023-04-15T10:34:03;7.13;;;1.58;;
20629;SDS011;17386;43.846;25.950;2023-04-15T10:38:56;2.58;;;1.13;;
20629;SDS011;17386;43.846;25.950;2023-04-15T10:41:24;8.55;;;4.35;;
20629;SDS011;17386;43.846;25.950;2023-04-15T10:44:03;10.88;;;3.53;;
20629;SDS011;17386;43.846;25.950;2023-04-15T10:46:39;4.95;;;1.92;;
20629;SDS011;17386;43.846;25.950;2023-04-15T10:49:07;3.92;;;1.40;;
20629;SDS011;17386;43.846;25.950;2023-04-15T10:51:36;2.95;;;1.17;;
20629;SDS011;17386;43.846;25.950;2023-04-15T10:54:16;4.13;;;1.30;;
20629;SDS011;17386;43.846;25.950;2023-04-15T10:59:30;2.78;;;1.30;;
20629;SDS011;17386;43.846;25.950;2023-04-15T11:02:03;4.03;;;1.23;;
20629;SDS011;17386;43.846;25.950;2023-04-15T11:07:35;4.18;;;1.13;;
20629;SDS011;17386;43.846;25.950;2023-04-15T11:10:00;2.67;;;1.20;;
20629;SDS011;17386;43.846;25.950;2023-04-15T11:12:36;1.70;;;0.75;;
20629;SDS011;17386;43.846;25.950;2023-04-15T11:17:55;2.63;;;0.95;;
20629;SDS011;17386;43.846;25.950;2023-04-15T11:20:21;4.18;;;1.50;;
20629;SDS011;17386;43.846;25.950;2023-04-15T11:22:47;5.18;;;1.30;;
20629;SDS011;17386;43.846;25.950;2023-04-15T11:25:24;3.53;;;1.10;;
20629;SDS011;17386;43.846;25.950;2023-04-15T11:27:52;3.38;;;1.20;;
20629;SDS011;17386;43.846;25.950;2023-04-15T11:30:27;3.63;;;1.00;;
20629;SDS011;17386;43.846;25.950;2023-04-15T11:32:56;2.88;;;0.98;;
20629;SDS011;17386;43.846;25.950;2023-04-15T11:35:23;2.00;;;0.80;;
20629;SDS011;17386;43.846;25.950;2023-04-15T11:37:49;3.47;;;1.00;;
20629;SDS011;17386;43.846;25.950;2023-04-15T11:40:15;2.17;;;1.00;;
20629;SDS011;17386;43.846;25.950;2023-04-15T11:42:44;2.80;;;0.90;;
20629;SDS011;17386;43.846;25.950;2023-04-15T11:45:11;3.42;;;1.27;;
20629;SDS011;17386;43.846;25.950;2023-04-15T11:47:39;2.10;;;1.00;;
20629;SDS011;17386;43.846;25.950;2023-04-15T11:50:15;4.32;;;1.40;;
20629;SDS011;17386;43.846;25.950;2023-04-15T11:52:52;4.90;;;0.95;;
20629;SDS011;17386;43.846;25.950;2023-04-15T11:55:18;3.15;;;1.00;;
20629;SDS011;17386;43.846;25.950;2023-04-15T11:57:44;3.90;;;1.00;;
20629;SDS011;17386;43.846;25.950;2023-04-15T12:00:10;3.25;;;1.65;;
20629;SDS011;17386;43.846;25.950;2023-04-15T12:02:36;1.20;;;0.68;;
20629;SDS011;17386;43.846;25.950;2023-04-15T12:05:10;1.85;;;0.98;;
20629;SDS011;17386;43.846;25.950;2023-04-15T12:10:24;3.92;;;1.40;;
20629;SDS011;17386;43.846;25.950;2023-04-15T12:12:51;2.53;;;1.40;;
20629;SDS011;17386;43.846;25.950;2023-04-15T12:15:17;5.25;;;1.00;;
20629;SDS011;17386;43.846;25.950;2023-04-15T12:17:46;5.63;;;1.33;;
20629;SDS011;17386;43.846;25.950;2023-04-15T12:20:12;7.35;;;2.13;;
20629;SDS011;17386;43.846;25.950;2023-04-15T12:22:37;7.55;;;1.42;;
20629;SDS011;17386;43.846;25.950;2023-04-15T12:25:03;4.55;;;1.33;;
20629;SDS011;17386;43.846;25.950;2023-04-15T12:27:30;2.53;;;1.02;;
20629;SDS011;17386;43.846;25.950;2023-04-15T12:30:02;2.97;;;1.17;;
20629;SDS011;17386;43.846;25.950;2023-04-15T12:32:29;2.28;;;1.13;;
20629;SDS011;17386;43.846;25.950;2023-04-15T12:34:59;8.60;;;1.77;;
20629;SDS011;17386;43.846;25.950;2023-04-15T12:37:25;4.18;;;1.15;;
20629;SDS011;17386;43.846;25.950;2023-04-15T12:39:51;6.63;;;1.50;;
20629;SDS011;17386;43.846;25.950;2023-04-15T12:42:17;4.30;;;1.25;;
20629;SDS011;17386;43.846;25.950;2023-04-15T12:44:43;3.90;;;1.27;;
20629;SDS011;17386;43.846;25.950;2023-04-15T12:47:09;2.00;;;0.98;;
20629;SDS011;17386;43.846;25.950;2023-04-15T12:49:35;2.90;;;1.08;;
20629;SDS011;17386;43.846;25.950;2023-04-15T12:52:02;2.13;;;0.80;;
20629;SDS011;17386;43.846;25.950;2023-04-15T12:54:28;4.20;;;1.33;;
20629;SDS011;17386;43.846;25.950;2023-04-15T12:56:54;3.55;;;0.90;;
20629;SDS011;17386;43.846;25.950;2023-04-15T12:59:20;1.05;;;0.80;;
20629;SDS011;17386;43.846;25.950;2023-04-15T13:01:47;2.85;;;0.90;;
20629;SDS011;17386;43.846;25.950;2023-04-15T13:04:13;3.75;;;1.10;;
20629;SDS011;17386;43.846;25.950;2023-04-15T13:06:40;2.55;;;0.80;;
20629;SDS011;17386;43.846;25.950;2023-04-15T13:09:05;1.15;;;0.70;;
20629;SDS011;17386;43.846;25.950;2023-04-15T13:11:31;4.35;;;1.30;;
20629;SDS011;17386;43.846;25.950;2023-04-15T13:14:01;2.33;;;0.93;;
20629;SDS011;17386;43.846;25.950;2023-04-15T13:16:27;4.78;;;1.42;;
20629;SDS011;17386;43.846;25.950;2023-04-15T13:18:53;1.88;;;0.98;;
20629;SDS011;17386;43.846;25.950;2023-04-15T13:21:18;3.08;;;0.98;;
20629;SDS011;17386;43.846;25.950;2023-04-15T13:23:44;4.07;;;1.23;;
20629;SDS011;17386;43.846;25.950;2023-04-15T13:26:09;7.28;;;1.33;;
20629;SDS011;17386;43.846;25.950;2023-04-15T13:28:35;2.13;;;0.88;;
20629;SDS011;17386;43.846;25.950;2023-04-15T13:31:01;1.55;;;0.80;;
20629;SDS011;17386;43.846;25.950;2023-04-15T13:33:27;6.43;;;1.33;;
20629;SDS011;17386;43.846;25.950;2023-04-15T13:35:52;4.80;;;1.17;;
20629;SDS011;17386;43.846;25.950;2023-04-15T13:38:18;1.52;;;0.88;;
20629;SDS011;17386;43.846;25.950;2023-04-15T13:40:43;4.38;;;1.38;;
20629;SDS011;17386;43.846;25.950;2023-04-15T13:43:09;2.40;;;0.73;;
20629;SDS011;17386;43.846;25.950;2023-04-15T13:45:35;2.40;;;0.90;;
20629;SDS011;17386;43.846;25.950;2023-04-15T13:48:00;4.28;;;1.10;;
20629;SDS011;17386;43.846;25.950;2023-04-15T13:50:26;3.17;;;1.00;;
20629;SDS011;17386;43.846;25.950;2023-04-15T13:52:52;2.03;;;0.80;;
20629;SDS011;17386;43.846;25.950;2023-04-15T13:55:17;2.78;;;1.02;;
20629;SDS011;17386;43.846;25.950;2023-04-15T13:57:43;3.95;;;1.20;;
20629;SDS011;17386;43.846;25.950;2023-04-15T14:00:09;2.08;;;0.80;;
20629;SDS011;17386;43.846;25.950;2023-04-15T14:02:35;1.83;;;0.70;;
20629;SDS011;17386;43.846;25.950;2023-04-15T14:05:00;2.67;;;0.77;;
20629;SDS011;17386;43.846;25.950;2023-04-15T14:07:27;5.43;;;2.25;;
20629;SDS011;17386;43.846;25.950;2023-04-15T14:09:53;1.90;;;1.00;;
20629;SDS011;17386;43.846;25.950;2023-04-15T14:12:19;1.65;;;1.05;;
20629;SDS011;17386;43.846;25.950;2023-04-15T14:14:45;2.60;;;1.05;;
20629;SDS011;17386;43.846;25.950;2023-04-15T14:17:10;3.53;;;1.15;;
20629;SDS011;17386;43.846;25.950;2023-04-15T14:19:35;2.15;;;0.98;;
20629;SDS011;17386;43.846;25.950;2023-04-15T14:22:01;3.25;;;1.40;;
20629;SDS011;17386;43.846;25.950;2023-04-15T14:24:27;6.65;;;2.92;;
20629;SDS011;17386;43.846;25.950;2023-04-15T14:26:52;2.00;;;1.00;;
20629;SDS011;17386;43.846;25.950;2023-04-15T14:29:18;2.80;;;1.05;;
20629;SDS011;17386;43.846;25.950;2023-04-15T14:31:44;4.25;;;1.23;;
20629;SDS011;17386;43.846;25.950;2023-04-15T14:34:10;2.70;;;0.90;;
20629;SDS011;17386;43.846;25.950;2023-04-15T14:36:35;4.68;;;0.95;;
20629;SDS011;17386;43.846;25.950;2023-04-15T14:39:01;2.08;;;1.00;;
20629;SDS011;17386;43.846;25.950;2023-04-15T14:41:28;1.90;;;0.82;;
20629;SDS011;17386;43.846;25.950;2023-04-15T14:43:53;4.20;;;0.88;;
20629;SDS011;17386;43.846;25.950;2023-04-15T14:46:19;3.40;;;1.05;;